createdAt,value
2022-11-22T00:00:54.885Z,23.80
2022-11-22T00:02:28.227Z,25.63
2022-11-22T00:04:01.361Z,24.75
2022-11-22T00:05:34.594Z,24.25
2022-11-22T00:07:07.724Z,25.13
2022-11-22T00:08:40.854Z,25.40
2022-11-22T00:10:16.118Z,28.80
2022-11-22T00:11:50.567Z,27.30
2022-11-22T00:13:23.693Z,28.15
2022-11-22T00:14:57.134Z,27.60
2022-11-22T00:16:30.264Z,27.48
2022-11-22T00:18:03.382Z,27.52
2022-11-22T00:19:39.338Z,28.10
2022-11-22T00:21:12.413Z,28.67
2022-11-22T00:22:45.213Z,27.85
2022-11-22T00:24:18.461Z,29.48
2022-11-22T00:25:51.486Z,27.50
2022-11-22T00:27:27.329Z,27.70
2022-11-22T00:29:00.373Z,27.77
2022-11-22T00:30:32.479Z,25.80
2022-11-22T00:32:05.722Z,26.33
2022-11-22T00:33:38.870Z,30.08
2022-11-22T00:35:12.957Z,27.73
2022-11-22T00:36:45.137Z,26.35
2022-11-22T00:38:18.198Z,28.33
2022-11-22T00:39:50.517Z,25.15
2022-11-22T00:41:23.642Z,25.55
2022-11-22T00:42:58.067Z,24.70
2022-11-22T00:44:31.236Z,26.58
2022-11-22T00:46:04.401Z,25.07
2022-11-22T00:47:37.543Z,24.88
2022-11-22T00:49:10.648Z,22.77
2022-11-22T00:50:43.748Z,24.73
2022-11-22T00:52:16.961Z,24.70
2022-11-22T00:53:50.013Z,28.83
2022-11-22T00:55:23.046Z,25.50
2022-11-22T00:56:55.285Z,23.50
2022-11-22T00:58:29.906Z,23.95
2022-11-22T01:00:02.997Z,25.83
2022-11-22T01:01:36.167Z,23.27
2022-11-22T01:03:12.355Z,24.60
2022-11-22T01:04:45.541Z,23.40
2022-11-22T01:06:18.650Z,23.63
2022-11-22T01:07:51.725Z,23.85
2022-11-22T01:09:25.414Z,24.67
2022-11-22T01:10:59.120Z,25.77
2022-11-22T01:12:32.294Z,23.58
2022-11-22T01:14:07.658Z,24.15
2022-11-22T01:15:40.748Z,24.85
2022-11-22T01:17:13.847Z,24.58
2022-11-22T01:18:46.932Z,25.63
2022-11-22T01:20:20.031Z,24.20
2022-11-22T01:21:53.094Z,24.73
2022-11-22T01:23:26.227Z,25.13
2022-11-22T01:24:59.473Z,25.95
2022-11-22T01:26:33.575Z,25.27
2022-11-22T01:28:06.758Z,23.58
2022-11-22T01:29:41.186Z,20.15
2022-11-22T01:31:14.275Z,23.70
2022-11-22T01:32:47.438Z,24.35
2022-11-22T01:34:20.515Z,24.98
2022-11-22T01:35:52.600Z,23.48
2022-11-22T01:37:25.696Z,28.15
2022-11-22T01:38:58.734Z,26.50
2022-11-22T01:40:31.834Z,31.55
2022-11-22T01:42:05.030Z,30.10
2022-11-22T01:43:38.121Z,28.13
2022-11-22T01:45:42.641Z,28.42
2022-11-22T01:47:18.672Z,28.60
2022-11-22T01:48:55.620Z,28.40
2022-11-22T01:50:29.591Z,26.60
2022-11-22T01:52:06.724Z,25.73
2022-11-22T01:53:40.813Z,27.02
2022-11-22T01:55:15.326Z,25.17
2022-11-22T01:56:54.099Z,29.00
2022-11-22T01:58:28.485Z,29.08
2022-11-22T02:00:04.157Z,28.42
2022-11-22T02:01:40.073Z,27.40
2022-11-22T02:03:14.991Z,28.63
2022-11-22T02:04:48.572Z,31.10
2022-11-22T02:06:25.005Z,31.38
2022-11-22T02:08:03.239Z,26.75
2022-11-22T02:09:38.449Z,29.85
2022-11-22T02:11:13.544Z,31.05
2022-11-22T02:12:47.006Z,29.35
2022-11-22T02:14:24.948Z,32.60
2022-11-22T02:15:59.371Z,31.85
2022-11-22T02:17:34.231Z,34.45
2022-11-22T02:19:12.153Z,29.77
2022-11-22T02:20:45.547Z,32.27
2022-11-22T02:22:30.358Z,29.55
2022-11-22T02:24:10.994Z,32.92
2022-11-22T02:25:56.654Z,28.27
2022-11-22T02:27:29.785Z,30.75
2022-11-22T02:29:06.441Z,30.10
2022-11-22T02:30:40.293Z,26.02
2022-11-22T02:32:13.383Z,28.27
2022-11-22T02:33:45.432Z,29.75
2022-11-22T02:35:20.744Z,31.45
2022-11-22T02:36:55.462Z,32.40
2022-11-22T02:38:31.974Z,33.42
2022-11-22T02:40:10.481Z,32.08
2022-11-22T02:41:45.800Z,34.08
2022-11-22T02:43:21.548Z,33.17
2022-11-22T02:44:54.721Z,32.83
2022-11-22T02:46:26.784Z,31.98
2022-11-22T02:48:06.693Z,33.38
2022-11-22T02:49:39.725Z,33.83
2022-11-22T02:51:16.734Z,35.63
2022-11-22T02:52:49.779Z,34.08
2022-11-22T02:54:23.381Z,33.63
2022-11-22T02:55:55.448Z,33.53
2022-11-22T02:57:29.896Z,34.15
2022-11-22T02:59:02.965Z,31.05
2022-11-22T03:00:36.967Z,32.70
2022-11-22T03:02:10.140Z,28.63
2022-11-22T03:03:43.200Z,30.83
2022-11-22T03:05:15.355Z,29.02
2022-11-22T03:06:48.490Z,29.25
2022-11-22T03:08:21.576Z,31.05
2022-11-22T03:09:54.656Z,29.17
2022-11-22T03:11:27.733Z,32.13
2022-11-22T03:13:02.224Z,35.20
2022-11-22T03:14:35.298Z,32.47
2022-11-22T03:16:08.794Z,34.30
2022-11-22T03:17:40.858Z,36.25
2022-11-22T03:19:14.609Z,37.08
2022-11-22T03:20:47.658Z,36.38
2022-11-22T03:22:20.745Z,36.30
2022-11-22T03:23:52.837Z,37.95
2022-11-22T03:25:25.912Z,40.38
2022-11-22T03:26:59.035Z,40.38
2022-11-22T03:28:33.492Z,42.85
2022-11-22T03:30:06.789Z,39.95
2022-11-22T03:31:39.893Z,37.85
2022-11-22T03:33:12.920Z,39.75
2022-11-22T03:34:45.978Z,37.80
2022-11-22T03:36:19.299Z,36.30
2022-11-22T03:37:52.400Z,37.05
2022-11-22T03:39:25.699Z,35.33
2022-11-22T03:40:58.948Z,41.60
2022-11-22T03:42:31.999Z,38.00
2022-11-22T03:44:06.913Z,35.70
2022-11-22T03:45:45.704Z,36.88
2022-11-22T03:47:18.819Z,39.72
2022-11-22T03:48:51.876Z,37.88
2022-11-22T03:50:25.045Z,35.78
2022-11-22T03:51:58.113Z,35.42
2022-11-22T03:53:30.239Z,39.97
2022-11-22T03:55:03.366Z,39.65
2022-11-22T03:56:36.489Z,39.47
2022-11-22T03:58:09.518Z,38.50
2022-11-22T03:59:43.976Z,39.80
2022-11-22T04:01:17.355Z,39.55
2022-11-22T04:02:50.482Z,39.92
2022-11-22T04:04:24.138Z,40.58
2022-11-22T04:05:57.393Z,36.67
2022-11-22T04:07:30.523Z,36.80
2022-11-22T04:09:04.120Z,38.17
2022-11-22T04:10:37.314Z,36.47
2022-11-22T04:12:10.360Z,33.80
2022-11-22T04:14:00.849Z,33.50
2022-11-22T04:15:35.278Z,37.78
2022-11-22T04:17:07.339Z,35.05
2022-11-22T04:18:40.448Z,36.22
2022-11-22T04:20:34.732Z,37.67
2022-11-22T04:22:06.777Z,32.20
2022-11-22T04:23:39.861Z,34.80
2022-11-22T04:25:14.539Z,32.92
2022-11-22T04:26:46.674Z,32.70
2022-11-22T04:28:24.543Z,33.50
2022-11-22T04:30:04.073Z,30.33
2022-11-22T04:31:56.097Z,34.83
2022-11-22T04:33:28.770Z,34.38
2022-11-22T04:35:01.832Z,33.38
2022-11-22T04:36:34.880Z,33.33
2022-11-22T04:38:08.075Z,30.80
2022-11-22T04:39:41.151Z,35.15
2022-11-22T04:41:14.405Z,33.95
2022-11-22T04:43:04.923Z,33.67
2022-11-22T04:44:42.911Z,29.38
2022-11-22T04:46:17.015Z,30.42
2022-11-22T04:47:59.497Z,30.88
2022-11-22T04:49:32.629Z,28.90
2022-11-22T04:51:23.884Z,30.15
2022-11-22T04:52:57.442Z,29.33
2022-11-22T04:54:30.705Z,28.38
2022-11-22T04:56:04.048Z,29.05
2022-11-22T04:57:36.119Z,27.97
2022-11-22T04:59:09.190Z,28.13
2022-11-22T05:00:42.976Z,26.85
2022-11-22T05:02:15.032Z,27.35
2022-11-22T05:03:49.475Z,26.98
2022-11-22T05:05:21.537Z,25.25
2022-11-22T05:06:56.688Z,29.88
2022-11-22T05:08:29.792Z,25.27
2022-11-22T05:10:02.873Z,27.73
2022-11-22T05:11:35.908Z,25.83
2022-11-22T05:13:07.990Z,28.25
2022-11-22T05:14:41.037Z,26.50
2022-11-22T05:16:15.989Z,29.38
2022-11-22T05:17:49.023Z,27.98
2022-11-22T05:19:23.462Z,27.50
2022-11-22T05:20:57.045Z,27.00
2022-11-22T05:22:44.073Z,28.27
2022-11-22T05:24:17.094Z,25.27
2022-11-22T05:25:49.266Z,22.48
2022-11-22T05:27:22.291Z,23.63
2022-11-22T05:28:56.867Z,23.07
2022-11-22T05:30:28.953Z,23.73
2022-11-22T05:32:02.034Z,21.27
2022-11-22T05:33:36.981Z,24.95
2022-11-22T05:35:11.525Z,23.30
2022-11-22T05:36:44.581Z,22.63
2022-11-22T05:38:16.699Z,20.52
2022-11-22T05:39:49.739Z,23.85
2022-11-22T05:41:22.815Z,25.23
2022-11-22T05:42:54.873Z,22.47
2022-11-22T05:44:28.042Z,23.30
2022-11-22T05:46:07.396Z,21.90
2022-11-22T05:47:40.487Z,25.50
2022-11-22T05:49:13.668Z,22.43
2022-11-22T05:50:47.116Z,21.80
2022-11-22T05:52:20.162Z,22.87
2022-11-22T05:53:53.271Z,20.60
2022-11-22T05:55:26.298Z,21.37
2022-11-22T05:56:59.353Z,23.40
2022-11-22T05:58:32.419Z,22.07
2022-11-22T06:00:05.990Z,21.00
2022-11-22T06:01:44.957Z,22.57
2022-11-22T06:03:18.124Z,20.70
2022-11-22T06:04:51.219Z,21.97
2022-11-22T06:06:25.691Z,23.83
2022-11-22T06:08:00.075Z,24.17
2022-11-22T06:09:34.227Z,20.20
2022-11-22T06:11:08.800Z,22.70
2022-11-22T06:12:41.929Z,21.50
2022-11-22T06:14:14.989Z,23.50
2022-11-22T06:15:48.038Z,27.20
2022-11-22T06:17:21.072Z,22.27
2022-11-22T06:18:55.273Z,23.60
2022-11-22T06:20:28.310Z,26.73
2022-11-22T06:22:02.727Z,24.87
2022-11-22T06:23:35.983Z,26.30
2022-11-22T06:25:10.547Z,23.67
2022-11-22T06:26:43.577Z,20.40
2022-11-22T06:28:16.642Z,23.00
2022-11-22T06:29:49.736Z,24.07
2022-11-22T06:31:24.934Z,23.23
2022-11-22T06:32:58.758Z,21.57
2022-11-22T06:34:31.881Z,21.60
2022-11-22T06:36:05.842Z,20.57
2022-11-22T06:37:40.431Z,21.00
2022-11-22T06:39:13.804Z,21.77
2022-11-22T06:40:46.876Z,19.53
2022-11-22T06:42:20.086Z,21.27
2022-11-22T06:43:53.379Z,21.03
2022-11-22T06:45:26.668Z,20.80
2022-11-22T06:46:59.705Z,22.93
2022-11-22T06:48:34.166Z,20.90
2022-11-22T06:50:08.029Z,22.87
2022-11-22T06:51:41.279Z,28.53
2022-11-22T06:53:39.355Z,28.60
2022-11-22T06:55:34.717Z,20.73
2022-11-22T06:57:02.277Z,23.03
2022-11-22T06:58:35.783Z,21.17
2022-11-22T07:00:10.435Z,23.73
2022-11-22T07:01:43.640Z,21.67
2022-11-22T07:03:16.745Z,23.00
2022-11-22T07:05:17.145Z,22.00
2022-11-22T07:06:44.263Z,21.77
2022-11-22T07:08:18.730Z,23.07
2022-11-22T07:09:56.285Z,20.17
2022-11-22T07:11:31.680Z,22.00
2022-11-22T07:13:04.764Z,21.60
2022-11-22T07:14:37.951Z,19.93
2022-11-22T07:16:13.069Z,20.53
2022-11-22T07:17:46.297Z,20.87
2022-11-22T07:19:19.387Z,21.40
2022-11-22T07:20:52.879Z,21.17
2022-11-22T07:22:26.037Z,21.80
2022-11-22T07:24:00.699Z,23.83
2022-11-22T07:25:33.761Z,21.80
2022-11-22T07:27:06.815Z,22.37
2022-11-22T07:28:39.152Z,20.17
2022-11-22T07:30:13.050Z,22.27
2022-11-22T07:31:47.311Z,21.00
2022-11-22T07:33:20.546Z,23.20
2022-11-22T07:34:53.650Z,21.23
2022-11-22T07:36:29.393Z,20.30
2022-11-22T07:38:02.577Z,22.67
2022-11-22T07:39:37.006Z,23.37
2022-11-22T07:41:10.199Z,21.47
2022-11-22T07:42:43.293Z,19.97
2022-11-22T07:44:17.340Z,19.43
2022-11-22T07:45:50.634Z,20.70
2022-11-22T07:47:23.734Z,19.53
2022-11-22T07:48:57.434Z,19.23
2022-11-22T07:50:31.446Z,18.37
2022-11-22T07:52:04.587Z,21.00
2022-11-22T07:53:37.669Z,19.97
2022-11-22T07:55:14.316Z,19.77
2022-11-22T07:56:47.565Z,20.90
2022-11-22T07:58:20.614Z,19.90
2022-11-22T07:59:53.799Z,19.90
2022-11-22T08:01:26.909Z,19.30
2022-11-22T08:03:00.838Z,21.23
2022-11-22T08:04:33.901Z,20.07
2022-11-22T08:06:08.767Z,20.33
2022-11-22T08:07:47.214Z,18.83
2022-11-22T08:09:20.515Z,18.27
2022-11-22T08:10:55.021Z,20.80
2022-11-22T08:12:28.284Z,18.30
2022-11-22T08:14:01.367Z,18.80
2022-11-22T08:15:34.437Z,19.23
2022-11-22T08:17:07.483Z,18.00
2022-11-22T08:18:41.621Z,20.10
2022-11-22T08:20:14.938Z,19.57
2022-11-22T08:21:52.722Z,19.93
2022-11-22T08:23:30.072Z,17.53
2022-11-22T08:25:03.231Z,18.97
2022-11-22T08:26:37.922Z,18.13
2022-11-22T08:28:11.056Z,18.33
2022-11-22T08:29:44.111Z,17.73
2022-11-22T08:31:19.595Z,19.33
2022-11-22T08:32:55.618Z,20.07
2022-11-22T08:34:28.766Z,18.73
2022-11-22T08:36:01.874Z,18.43
2022-11-22T08:37:35.884Z,17.40
2022-11-22T08:39:09.102Z,18.47
2022-11-22T08:40:43.351Z,17.53
2022-11-22T08:42:17.747Z,20.37
2022-11-22T08:43:51.387Z,17.73
2022-11-22T08:45:24.551Z,18.00
2022-11-22T08:46:57.690Z,18.23
2022-11-22T08:48:31.950Z,18.07
2022-11-22T08:50:05.852Z,16.47
2022-11-22T08:51:44.767Z,18.23
2022-11-22T08:53:17.899Z,17.57
2022-11-22T08:54:50.984Z,19.23
2022-11-22T08:56:24.052Z,18.97
2022-11-22T08:58:01.168Z,16.17
2022-11-22T08:59:34.691Z,18.30
2022-11-22T09:01:09.139Z,17.03
2022-11-22T09:02:42.467Z,16.77
2022-11-22T09:04:15.575Z,16.17
2022-11-22T09:09:38.386Z,16.93
2022-11-22T09:11:13.591Z,17.40
2022-11-22T09:12:46.851Z,17.83
2022-11-22T09:14:21.307Z,16.80
2022-11-22T09:15:54.860Z,18.37
2022-11-22T09:17:27.925Z,16.77
2022-11-22T09:19:01.028Z,17.73
2022-11-22T09:20:34.125Z,17.57
2022-11-22T09:22:07.228Z,16.57
2022-11-22T09:23:39.299Z,18.03
2022-11-22T09:25:12.464Z,16.63
2022-11-22T09:26:45.568Z,16.03
2022-11-22T09:28:18.652Z,18.93
2022-11-22T09:29:53.276Z,16.73
2022-11-22T09:31:26.627Z,17.13
2022-11-22T09:32:59.807Z,17.77
2022-11-22T09:34:32.907Z,15.10
2022-11-22T09:36:08.711Z,15.80
2022-11-22T09:37:41.962Z,17.00
2022-11-22T09:39:15.112Z,15.70
2022-11-22T09:40:48.258Z,16.90
2022-11-22T09:42:41.667Z,15.20
2022-11-22T09:44:20.987Z,16.33
2022-11-22T09:46:09.050Z,14.50
2022-11-22T09:47:51.494Z,15.73
2022-11-22T09:49:30.617Z,16.30
2022-11-22T09:51:10.743Z,15.50
2022-11-22T09:52:49.881Z,14.97
2022-11-22T09:54:28.174Z,14.43
2022-11-22T09:56:05.931Z,16.00
2022-11-22T09:57:43.706Z,14.33
2022-11-22T09:59:22.366Z,14.33
2022-11-22T10:01:03.487Z,14.33
2022-11-22T10:02:59.257Z,16.37
2022-11-22T10:04:38.267Z,15.60
2022-11-22T10:06:18.552Z,15.60
2022-11-22T10:07:58.972Z,15.63
2022-11-22T10:09:38.993Z,15.93
2022-11-22T10:11:19.053Z,14.93
2022-11-22T10:12:58.254Z,14.77
2022-11-22T10:14:41.211Z,14.80
2022-11-22T10:16:21.803Z,15.77
2022-11-22T10:17:57.824Z,14.27
2022-11-22T10:19:38.822Z,16.13
2022-11-22T10:21:14.233Z,13.77
2022-11-22T10:22:48.666Z,15.07
2022-11-22T10:24:21.770Z,15.73
2022-11-22T10:25:59.245Z,16.37
2022-11-22T10:27:34.135Z,15.10
2022-11-22T10:29:20.946Z,14.47
2022-11-22T10:31:04.198Z,14.67
2022-11-22T10:32:44.028Z,13.53
2022-11-22T10:34:28.868Z,12.77
2022-11-22T10:36:18.919Z,13.93
2022-11-22T10:38:03.480Z,14.40
2022-11-22T10:39:56.617Z,14.73
2022-11-22T10:41:40.713Z,15.20
2022-11-22T10:43:29.847Z,14.93
2022-11-22T10:45:11.819Z,15.33
2022-11-22T10:46:56.914Z,13.33
2022-11-22T10:48:39.978Z,14.87
2022-11-22T10:50:21.146Z,16.33
2022-11-22T10:52:01.697Z,15.30
2022-11-22T10:53:46.695Z,13.83
2022-11-22T10:55:32.546Z,13.57
2022-11-22T10:57:15.850Z,14.23
2022-11-22T10:59:03.575Z,15.20
2022-11-22T11:00:40.874Z,14.03
2022-11-22T11:02:35.543Z,15.67
2022-11-22T11:04:15.062Z,13.50
2022-11-22T11:06:15.631Z,13.43
2022-11-22T11:07:48.648Z,14.37
2022-11-22T11:11:23.972Z,14.60
2022-11-22T11:12:59.720Z,13.83
2022-11-22T11:14:37.979Z,13.53
2022-11-22T11:16:17.375Z,15.93
2022-11-22T11:17:55.635Z,14.30
2022-11-22T11:19:34.008Z,14.57
2022-11-22T11:21:07.724Z,15.33
2022-11-22T11:24:35.204Z,13.33
2022-11-22T11:26:24.198Z,15.03
2022-11-22T11:28:02.015Z,15.40
2022-11-22T11:29:40.774Z,15.53
2022-11-22T11:31:15.757Z,13.70
2022-11-22T11:32:53.597Z,14.83
2022-11-22T11:34:30.586Z,14.87
2022-11-22T11:36:07.076Z,15.80
2022-11-22T11:37:40.423Z,17.60
2022-11-22T11:39:21.362Z,16.43
2022-11-22T11:40:54.383Z,16.80
2022-11-22T11:42:30.464Z,18.73
2022-11-22T11:44:05.242Z,18.90
2022-11-22T11:45:38.321Z,17.13
2022-11-22T11:47:19.947Z,20.60
2022-11-22T11:48:54.089Z,20.93
2022-11-22T11:50:30.182Z,15.73
2022-11-22T11:52:06.465Z,19.00
2022-11-22T11:53:41.212Z,19.27
2022-11-22T11:55:17.667Z,21.17
2022-11-22T11:56:53.399Z,19.67
2022-11-22T11:58:26.612Z,20.17
2022-11-22T12:00:01.889Z,19.80
2022-11-22T12:01:38.995Z,20.90
2022-11-22T12:03:15.909Z,19.10
2022-11-22T12:04:52.566Z,22.50
2022-11-22T12:06:31.592Z,20.77
2022-11-22T12:08:24.907Z,21.03
2022-11-22T12:09:58.069Z,20.77
2022-11-22T12:11:39.011Z,22.70
2022-11-22T12:13:20.931Z,21.67
2022-11-22T12:15:11.379Z,21.93
2022-11-22T12:16:49.080Z,22.97
2022-11-22T12:18:39.939Z,21.83
2022-11-22T12:20:19.322Z,20.90
2022-11-22T12:22:02.037Z,20.53
2022-11-22T12:23:42.738Z,20.67
2022-11-22T12:25:32.556Z,20.37
2022-11-22T12:27:06.757Z,21.53
2022-11-22T12:28:40.310Z,20.50
2022-11-22T12:30:14.609Z,21.07
2022-11-22T12:31:53.457Z,21.57
2022-11-22T12:33:30.996Z,20.77
2022-11-22T12:35:11.367Z,20.33
2022-11-22T12:36:49.844Z,18.50
2022-11-22T12:38:29.204Z,20.07
2022-11-22T12:40:06.940Z,22.17
2022-11-22T12:41:42.381Z,24.20
2022-11-22T12:43:21.237Z,26.37
2022-11-22T12:44:58.648Z,21.10
2022-11-22T12:46:39.647Z,20.70
2022-11-22T12:48:21.860Z,20.57
2022-11-22T12:49:58.603Z,22.40
2022-11-22T12:51:41.240Z,23.67
2022-11-22T12:53:16.901Z,21.40
2022-11-22T12:55:00.459Z,20.83
2022-11-22T12:56:44.340Z,26.07
2022-11-22T12:58:22.789Z,23.63
2022-11-22T13:00:03.761Z,22.57
2022-11-22T13:01:45.096Z,23.03
2022-11-22T13:03:23.560Z,22.67
2022-11-22T13:05:01.602Z,23.10
2022-11-22T13:06:42.992Z,23.73
2022-11-22T13:08:19.646Z,22.90
2022-11-22T13:09:59.634Z,22.53
2022-11-22T13:11:36.710Z,25.63
2022-11-22T13:13:18.477Z,22.23
2022-11-22T13:14:55.137Z,23.00
2022-11-22T13:16:28.233Z,22.13
2022-11-22T13:18:01.942Z,23.83
2022-11-22T13:19:46.379Z,24.50
2022-11-22T13:21:28.079Z,21.10
2022-11-22T13:23:19.512Z,20.60
2022-11-22T13:25:10.375Z,20.63
2022-11-22T13:26:48.808Z,20.00
2022-11-22T13:28:26.038Z,19.53
2022-11-22T13:30:02.017Z,20.30
2022-11-22T13:31:40.791Z,20.70
2022-11-22T13:33:26.792Z,21.00
2022-11-22T13:35:08.137Z,19.37
2022-11-22T13:36:41.496Z,19.90
2022-11-22T13:38:17.682Z,18.57
2022-11-22T13:39:51.394Z,19.93
2022-11-22T13:41:29.823Z,19.57
2022-11-22T13:43:39.356Z,18.90
2022-11-22T13:45:22.696Z,21.83
2022-11-22T13:46:58.276Z,21.10
2022-11-22T13:49:13.296Z,17.23
2022-11-22T13:51:04.410Z,19.90
2022-11-22T13:52:55.469Z,19.00
2022-11-22T13:55:03.868Z,19.67
2022-11-22T13:57:00.673Z,19.73
2022-11-22T13:58:52.804Z,22.47
2022-11-22T14:00:43.772Z,22.57
2022-11-22T14:02:24.198Z,22.37
2022-11-22T14:04:21.427Z,21.73
2022-11-22T14:05:57.922Z,21.27
2022-11-22T14:07:35.554Z,21.77
2022-11-22T14:09:37.852Z,22.27
2022-11-22T14:11:39.191Z,20.50
2022-11-22T14:13:33.039Z,22.77
2022-11-22T14:15:29.719Z,19.57
2022-11-22T14:17:15.576Z,20.73
2022-11-22T14:18:57.136Z,23.47
2022-11-22T14:20:43.179Z,24.53
2022-11-22T14:22:24.825Z,24.00
2022-11-22T14:24:04.836Z,24.20
2022-11-22T14:25:56.248Z,22.40
2022-11-22T14:27:39.041Z,23.10
2022-11-22T14:29:53.543Z,23.73
2022-11-22T14:31:30.464Z,25.57
2022-11-22T14:33:05.278Z,25.20
2022-11-22T14:35:16.956Z,25.30
2022-11-22T14:37:23.534Z,25.50
2022-11-22T14:38:56.666Z,23.30
2022-11-22T14:40:40.740Z,23.83
2022-11-22T14:42:48.187Z,25.97
2022-11-22T14:44:25.984Z,23.83
2022-11-22T14:46:02.708Z,24.80
2022-11-22T14:47:36.703Z,25.20
2022-11-22T14:49:16.287Z,25.53
2022-11-22T14:50:53.665Z,25.00
2022-11-22T14:52:31.581Z,24.17
2022-11-22T14:54:13.019Z,24.03
2022-11-22T14:55:47.741Z,27.50
2022-11-22T14:57:23.412Z,26.93
2022-11-22T14:59:10.908Z,26.60
2022-11-22T15:01:11.423Z,30.03
2022-11-22T15:03:15.709Z,30.23
2022-11-22T15:09:12.683Z,33.30
2022-11-22T15:09:12.786Z,30.30
2022-11-22T15:09:16.598Z,32.23
2022-11-22T15:11:16.693Z,29.17
2022-11-22T15:13:20.467Z,31.37
2022-11-22T15:58:33.667Z,40.50
2022-11-22T16:00:11.787Z,38.47
2022-11-22T16:01:46.269Z,35.50
2022-11-22T16:03:25.400Z,40.73
2022-11-22T16:06:09.192Z,36.40
2022-11-22T16:06:57.123Z,38.90
2022-11-22T16:08:32.862Z,40.03
2022-11-22T16:10:15.837Z,36.13
2022-11-22T16:11:55.066Z,37.23
2022-11-22T16:13:29.704Z,38.57
2022-11-22T16:15:28.796Z,42.77
2022-11-22T16:17:34.399Z,36.43
2022-11-22T16:19:22.880Z,37.93
2022-11-22T16:21:04.986Z,35.47
2022-11-22T16:22:38.276Z,35.10
2022-11-22T16:24:18.604Z,41.87
2022-11-22T16:25:55.834Z,36.23
2022-11-22T16:27:28.897Z,38.70
2022-11-22T16:29:18.062Z,40.80
2022-11-22T16:30:51.465Z,37.07
2022-11-22T16:32:24.635Z,39.37
2022-11-22T16:33:58.283Z,37.57
2022-11-22T16:35:31.317Z,39.73
2022-11-22T16:37:27.287Z,38.47
2022-11-22T16:39:00.320Z,39.03
2022-11-22T16:40:33.860Z,40.77
2022-11-22T16:42:07.761Z,41.43
2022-11-22T16:43:41.121Z,37.07
2022-11-22T16:45:17.415Z,41.23
2022-11-22T16:46:50.463Z,41.47
2022-11-22T16:48:33.498Z,36.30
2022-11-22T16:50:07.587Z,38.73
2022-11-22T16:51:44.558Z,39.20
2022-11-22T16:53:19.022Z,37.60
2022-11-22T16:54:52.086Z,38.47
2022-11-22T16:56:27.500Z,37.00
2022-11-22T16:58:00.523Z,37.00
2022-11-22T16:59:33.794Z,38.70
2022-11-22T17:01:07.442Z,35.90
2022-11-22T17:02:41.769Z,37.20
2022-11-22T17:04:22.793Z,35.03
2022-11-22T17:05:55.843Z,36.37
2022-11-22T17:07:29.420Z,38.00
2022-11-22T17:09:05.623Z,39.97
2022-11-22T17:10:40.524Z,40.87
2022-11-22T17:12:17.705Z,34.13
2022-11-22T17:13:50.843Z,36.70
2022-11-22T17:15:25.728Z,38.33
2022-11-22T17:16:59.010Z,38.80
2022-11-22T17:18:32.104Z,36.57
2022-11-22T17:20:05.846Z,36.57
2022-11-22T17:21:39.574Z,38.83
2022-11-22T17:23:20.914Z,39.27
2022-11-22T17:24:55.366Z,37.07
2022-11-22T17:26:29.004Z,38.53
2022-11-22T17:28:02.232Z,34.97
2022-11-22T17:29:49.772Z,34.47
2022-11-22T17:31:25.077Z,35.30
2022-11-22T17:32:58.113Z,36.90
2022-11-22T17:34:31.655Z,34.50
2022-11-22T17:36:05.380Z,35.33
2022-11-22T17:37:38.420Z,35.43
2022-11-22T17:39:13.733Z,33.30
2022-11-22T17:40:50.045Z,34.73
2022-11-22T17:42:24.054Z,34.20
2022-11-22T17:43:57.265Z,33.97
2022-11-22T17:45:30.639Z,34.63
2022-11-22T17:47:03.926Z,34.47
2022-11-22T17:48:36.985Z,35.70
2022-11-22T17:50:10.953Z,36.10
2022-11-22T17:51:44.359Z,35.37
2022-11-22T17:53:18.847Z,33.67
2022-11-22T17:54:51.934Z,33.90
2022-11-22T17:56:27.107Z,35.77
2022-11-22T17:58:01.254Z,34.30
2022-11-22T17:59:34.576Z,34.83
2022-11-22T18:01:09.734Z,36.50
2022-11-22T18:02:42.873Z,32.63
2022-11-22T18:04:17.429Z,31.93
2022-11-22T18:05:50.463Z,34.17
2022-11-22T18:07:24.011Z,33.60
2022-11-22T18:08:57.212Z,34.13
2022-11-22T18:10:30.265Z,31.27
2022-11-22T18:12:04.915Z,30.10
2022-11-22T18:13:39.597Z,29.30
2022-11-22T18:15:12.744Z,33.20
2022-11-22T18:16:45.801Z,28.03
2022-11-22T18:18:48.425Z,30.57
2022-11-22T18:20:12.592Z,30.33
2022-11-22T18:21:45.669Z,31.00
2022-11-22T18:23:19.014Z,30.67
2022-11-22T18:24:52.055Z,33.33
2022-11-22T18:26:41.602Z,26.93
2022-11-22T18:28:16.915Z,28.10
2022-11-22T18:29:49.961Z,30.87
2022-11-22T18:31:23.037Z,29.57
2022-11-22T18:32:56.066Z,31.27
2022-11-22T18:34:29.475Z,31.63
2022-11-22T18:36:04.507Z,33.27
2022-11-22T18:37:37.531Z,33.57
2022-11-22T18:39:10.561Z,32.67
2022-11-22T18:40:46.464Z,29.47
2022-11-22T18:42:19.643Z,28.10
2022-11-22T18:43:55.518Z,29.90
2022-11-22T18:45:30.516Z,27.97
2022-11-22T18:47:03.538Z,27.83
2022-11-22T18:48:38.623Z,27.47
2022-11-22T18:50:12.948Z,28.80
2022-11-22T18:51:46.212Z,27.17
2022-11-22T18:53:19.240Z,29.53
2022-11-22T18:54:54.983Z,28.30
2022-11-22T18:56:28.273Z,27.93
2022-11-22T18:58:01.311Z,28.77
2022-11-22T18:59:35.748Z,30.13
2022-11-22T19:01:12.651Z,27.70
2022-11-22T19:02:45.833Z,30.17
2022-11-22T19:04:19.467Z,32.13
2022-11-22T19:05:52.834Z,32.30
2022-11-22T19:07:25.990Z,31.90
2022-11-22T19:08:59.203Z,29.70
2022-11-22T19:10:32.239Z,28.40
2022-11-22T19:12:05.766Z,28.20
2022-11-22T19:13:41.408Z,29.03
2022-11-22T19:15:16.641Z,28.13
2022-11-22T19:16:49.677Z,28.43
2022-11-22T19:18:22.751Z,29.27
2022-11-22T19:19:59.021Z,29.60
2022-11-22T19:21:32.249Z,27.83
2022-11-22T19:23:05.272Z,27.27
2022-11-22T19:24:42.517Z,27.67
2022-11-22T19:26:20.424Z,27.20
2022-11-22T19:27:53.506Z,28.50
2022-11-22T19:29:26.648Z,30.23
2022-11-22T19:31:07.670Z,28.37
2022-11-22T19:32:40.783Z,30.70
2022-11-22T19:34:14.487Z,29.03
2022-11-22T19:35:56.976Z,29.13
2022-11-22T19:37:30.046Z,30.77
2022-11-22T19:39:04.393Z,31.20
2022-11-22T19:40:37.509Z,35.77
2022-11-22T19:42:10.571Z,32.87
2022-11-22T19:43:43.860Z,34.93
2022-11-22T19:45:17.013Z,36.73
2022-11-22T19:46:51.495Z,34.70
2022-11-22T19:48:24.550Z,37.10
2022-11-22T19:49:57.555Z,34.27
2022-11-22T19:51:31.947Z,37.33
2022-11-22T19:53:05.239Z,38.43
2022-11-22T19:54:38.531Z,36.20
2022-11-22T19:56:14.330Z,39.80
2022-11-22T19:57:47.384Z,40.80
2022-11-22T19:59:20.537Z,38.73
2022-11-22T20:00:53.604Z,39.97
2022-11-22T20:02:28.296Z,36.33
2022-11-22T20:04:03.373Z,35.83
2022-11-22T20:05:36.496Z,39.67
2022-11-22T20:07:09.598Z,36.63
2022-11-22T20:08:43.104Z,43.03
2022-11-22T20:10:16.784Z,40.53
2022-11-22T20:11:49.881Z,46.77
2022-11-22T20:13:22.988Z,40.17
2022-11-22T20:14:56.021Z,44.90
2022-11-22T20:16:31.156Z,46.93
2022-11-22T20:18:05.936Z,44.87
2022-11-22T20:19:39.034Z,42.63
2022-11-22T20:21:12.700Z,40.97
2022-11-22T20:22:46.292Z,44.63
2022-11-22T20:24:19.355Z,43.73
2022-11-22T20:25:52.400Z,43.73
2022-11-22T20:27:25.487Z,43.80
2022-11-22T20:29:00.250Z,43.30
2022-11-22T20:30:33.506Z,43.80
2022-11-22T20:32:06.910Z,46.73
2022-11-22T20:33:43.022Z,45.47
2022-11-22T20:35:16.421Z,40.80
2022-11-22T20:36:49.490Z,49.93
2022-11-22T20:38:26.627Z,44.60
2022-11-22T20:39:59.673Z,41.87
2022-11-22T20:41:32.727Z,45.70
2022-11-22T20:43:05.752Z,45.17
2022-11-22T20:44:39.051Z,45.20
2022-11-22T20:46:13.956Z,45.93
2022-11-22T20:47:47.013Z,42.53
2022-11-22T20:49:24.965Z,46.70
2022-11-22T20:50:58.090Z,45.53
2022-11-22T20:52:31.326Z,43.90
2022-11-22T20:54:04.488Z,46.90
2022-11-22T20:55:37.513Z,45.33
2022-11-22T20:57:10.536Z,45.20
2022-11-22T20:58:45.092Z,49.00
2022-11-22T21:00:18.696Z,48.07
2022-11-22T21:01:52.701Z,45.20
2022-11-22T21:03:26.326Z,49.60
2022-11-22T21:05:00.737Z,45.50
2022-11-22T21:06:36.116Z,46.97
2022-11-22T21:08:09.154Z,47.37
2022-11-22T21:09:42.211Z,50.33
2022-11-22T21:11:17.560Z,46.83
2022-11-22T21:12:50.874Z,45.83
2022-11-22T21:14:23.918Z,50.03
2022-11-22T21:16:02.044Z,45.43
2022-11-22T21:17:45.985Z,49.60
2022-11-22T21:19:28.158Z,48.33
2022-11-22T21:21:07.862Z,47.60
2022-11-22T21:22:41.511Z,47.87
2022-11-22T21:24:14.710Z,47.17
2022-11-22T21:25:50.361Z,47.27
2022-11-22T21:27:23.699Z,45.80
2022-11-22T21:28:57.286Z,45.87
2022-11-22T21:30:30.321Z,52.20
2022-11-22T21:32:03.425Z,48.20
2022-11-22T21:33:37.615Z,46.67
2022-11-22T21:35:11.139Z,46.43
2022-11-22T21:36:45.533Z,47.00